Time;durP1;ratioP1;P1;durP2;ratioP2;P2;SDS_P1;SDS_P2;PMS_P1;PMS_P2;Temp;Humidity;BMP_temperature;BMP_pressure;BME280_temperature;BME280_humidity;BME280_pressure;Samples;Min_cycle;Max_cycle;Signal;HPM_P1;HPM_P2
2021/10/30 00:00:23;;;;;;;32.20;20.88;;;;;;;;;;5051965;28;20052;-66
2021/10/30 00:02:50;;;;;;;36.70;22.00;;;;;;;;;;5034666;28;20024;-66
2021/10/30 00:05:16;;;;;;;32.72;20.27;;;;;;;;;;5053256;28;20083;-66
2021/10/30 00:07:43;;;;;;;33.85;21.38;;;;;;;;;;5053376;28;20033;-66
2021/10/30 00:10:13;;;;;;;31.15;21.33;;;;;;;;;;5048233;28;20030;-66
2021/10/30 00:12:39;;;;;;;30.52;20.35;;;;;;;;;;5049739;28;20032;-66
2021/10/30 00:15:05;;;;;;;32.97;22.02;;;;;;;;;;5053115;28;20029;-66
2021/10/30 00:17:31;;;;;;;37.85;21.48;;;;;;;;;;5054056;28;20079;-66
2021/10/30 00:19:57;;;;;;;35.58;21.38;;;;;;;;;;5051669;28;20476;-66
2021/10/30 00:22:24;;;;;;;29.35;20.17;;;;;;;;;;5053361;28;20021;-66
2021/10/30 00:24:50;;;;;;;35.25;21.98;;;;;;;;;;5051621;28;20032;-66
2021/10/30 00:27:16;;;;;;;34.28;20.92;;;;;;;;;;5053162;28;20017;-66
2021/10/30 00:29:42;;;;;;;32.92;20.30;;;;;;;;;;5047768;28;20025;-66
2021/10/30 00:32:09;;;;;;;31.45;20.23;;;;;;;;;;5046999;28;20044;-66
2021/10/30 00:34:35;;;;;;;32.50;20.13;;;;;;;;;;5049390;28;20025;-66
2021/10/30 00:37:01;;;;;;;31.20;20.52;;;;;;;;;;5049533;28;20430;-66
2021/10/30 00:39:27;;;;;;;31.77;20.08;;;;;;;;;;5048610;28;20028;-66
2021/10/30 00:41:53;;;;;;;33.13;20.67;;;;;;;;;;5051646;28;20033;-66
2021/10/30 00:44:20;;;;;;;34.25;20.95;;;;;;;;;;5050589;28;20029;-66
2021/10/30 00:46:48;;;;;;;38.92;23.30;;;;;;;;;;5049658;28;20561;-66
2021/10/30 00:49:15;;;;;;;37.83;23.65;;;;;;;;;;5049373;28;20047;-66
2021/10/30 00:51:42;;;;;;;44.75;24.13;;;;;;;;;;5050622;28;20657;-66
2021/10/30 00:54:09;;;;;;;43.13;24.00;;;;;;;;;;5049821;28;20029;-67
2021/10/30 00:56:36;;;;;;;40.75;24.23;;;;;;;;;;5052516;28;20033;-66
2021/10/30 00:59:04;;;;;;;37.05;23.38;;;;;;;;;;5050334;28;20098;-66
2021/10/30 01:01:30;;;;;;;41.25;24.08;;;;;;;;;;5051816;28;20504;-66
2021/10/30 01:03:56;;;;;;;42.35;24.88;;;;;;;;;;5053095;28;20500;-66
2021/10/30 01:06:22;;;;;;;35.63;23.35;;;;;;;;;;5033585;28;20041;-66
2021/10/30 01:08:48;;;;;;;36.20;23.67;;;;;;;;;;5049571;28;20033;-66
2021/10/30 01:11:17;;;;;;;39.55;24.70;;;;;;;;;;5051662;28;20036;-66
2021/10/30 01:13:43;;;;;;;40.83;23.73;;;;;;;;;;5052882;28;20025;-66
2021/10/30 01:16:10;;;;;;;36.42;23.83;;;;;;;;;;5051045;28;20519;-67
2021/10/30 01:18:36;;;;;;;34.95;22.05;;;;;;;;;;5032511;28;20033;-66
2021/10/30 01:21:03;;;;;;;33.17;21.45;;;;;;;;;;5043527;28;20107;-66
2021/10/30 01:23:29;;;;;;;32.60;20.55;;;;;;;;;;5040406;28;20047;-66
2021/10/30 01:25:57;;;;;;;32.55;20.42;;;;;;;;;;5033236;28;20028;-66
2021/10/30 01:28:23;;;;;;;35.33;20.23;;;;;;;;;;5049951;28;20029;-66
2021/10/30 01:30:49;;;;;;;29.63;19.42;;;;;;;;;;5046606;28;20025;-66
2021/10/30 01:33:15;;;;;;;29.23;18.80;;;;;;;;;;5034077;28;20039;-66
2021/10/30 01:35:41;;;;;;;30.38;17.50;;;;;;;;;;5033593;28;20095;-67
2021/10/30 01:38:09;;;;;;;30.33;19.83;;;;;;;;;;5050867;28;20127;-66
2021/10/30 01:40:42;;;;;;;31.60;18.85;;;;;;;;;;5050608;28;20017;-66
2021/10/30 01:43:09;;;;;;;28.85;18.75;;;;;;;;;;5051807;28;20024;-66
2021/10/30 01:45:35;;;;;;;30.95;19.48;;;;;;;;;;5047162;28;20070;-66
2021/10/30 01:48:02;;;;;;;33.85;19.50;;;;;;;;;;5050665;28;20029;-67
2021/10/30 01:50:29;;;;;;;35.90;22.17;;;;;;;;;;5049434;28;20056;-66
2021/10/30 01:52:57;;;;;;;32.65;20.13;;;;;;;;;;5035279;28;20036;-66
2021/10/30 01:55:23;;;;;;;33.20;23.23;;;;;;;;;;5051445;28;20032;-66
2021/10/30 01:57:50;;;;;;;34.08;22.70;;;;;;;;;;5049827;28;20025;-66
2021/10/30 02:00:17;;;;;;;34.13;23.73;;;;;;;;;;5046475;28;20096;-67
2021/10/30 02:02:43;;;;;;;36.83;24.00;;;;;;;;;;5050725;28;20024;-66
2021/10/30 02:05:10;;;;;;;33.97;21.48;;;;;;;;;;5050262;28;20021;-66
2021/10/30 02:07:37;;;;;;;32.03;21.17;;;;;;;;;;5033802;28;20041;-66
2021/10/30 02:10:04;;;;;;;31.10;19.60;;;;;;;;;;5047598;28;20500;-66
2021/10/30 02:12:30;;;;;;;33.15;20.95;;;;;;;;;;5050577;28;20031;-66
2021/10/30 02:14:56;;;;;;;28.50;18.92;;;;;;;;;;5051037;28;20056;-66
2021/10/30 02:17:22;;;;;;;25.80;17.35;;;;;;;;;;5051581;28;20047;-66
2021/10/30 02:19:48;;;;;;;27.75;18.55;;;;;;;;;;5049759;28;20086;-66
2021/10/30 02:22:15;;;;;;;26.20;16.25;;;;;;;;;;5051859;28;20021;-66
2021/10/30 02:24:41;;;;;;;26.77;18.17;;;;;;;;;;5048430;28;20033;-66
2021/10/30 02:27:07;;;;;;;26.80;17.33;;;;;;;;;;5046687;28;20024;-66
2021/10/30 02:29:33;;;;;;;23.75;16.65;;;;;;;;;;5027804;28;20043;-66
2021/10/30 02:32:01;;;;;;;22.58;16.58;;;;;;;;;;5049531;28;20021;-66
2021/10/30 02:34:27;;;;;;;23.98;16.52;;;;;;;;;;5051019;28;20111;-66
2021/10/30 02:36:53;;;;;;;26.90;15.93;;;;;;;;;;5049582;28;20033;-67
2021/10/30 02:39:19;;;;;;;26.67;16.10;;;;;;;;;;5049449;28;20044;-66
2021/10/30 02:41:45;;;;;;;27.27;17.67;;;;;;;;;;5050752;28;20032;-66
2021/10/30 02:44:11;;;;;;;27.42;18.35;;;;;;;;;;5042873;28;20022;-66
2021/10/30 02:46:38;;;;;;;29.42;18.67;;;;;;;;;;5048934;28;20032;-66
2021/10/30 02:49:04;;;;;;;30.80;19.27;;;;;;;;;;5049699;28;20029;-66
2021/10/30 02:51:30;;;;;;;29.83;19.90;;;;;;;;;;5049868;28;20439;-66
2021/10/30 02:53:56;;;;;;;30.17;19.83;;;;;;;;;;5050059;28;20396;-66
2021/10/30 02:56:22;;;;;;;32.20;18.77;;;;;;;;;;5050094;28;20107;-66
2021/10/30 02:58:48;;;;;;;29.60;19.17;;;;;;;;;;5028506;28;20037;-66
2021/10/30 03:01:14;;;;;;;30.40;18.95;;;;;;;;;;5050024;28;20680;-66
2021/10/30 03:03:41;;;;;;;32.78;19.20;;;;;;;;;;5047781;28;20033;-67
2021/10/30 03:06:07;;;;;;;34.05;20.35;;;;;;;;;;5049737;28;20098;-66
2021/10/30 03:08:33;;;;;;;32.92;20.67;;;;;;;;;;5049827;28;20067;-66
2021/10/30 03:10:59;;;;;;;29.60;19.27;;;;;;;;;;5045583;28;20096;-66
2021/10/30 03:13:26;;;;;;;34.17;20.33;;;;;;;;;;5032297;28;20075;-66
2021/10/30 03:15:53;;;;;;;30.75;18.50;;;;;;;;;;5049646;28;20112;-66
2021/10/30 03:18:19;;;;;;;31.77;19.73;;;;;;;;;;5044331;28;20025;-66
2021/10/30 03:20:45;;;;;;;37.10;20.77;;;;;;;;;;5050066;28;20108;-66
2021/10/30 03:23:11;;;;;;;37.55;22.20;;;;;;;;;;5048477;28;20083;-66
2021/10/30 03:25:37;;;;;;;39.30;23.58;;;;;;;;;;5050072;28;20024;-66
2021/10/30 03:28:03;;;;;;;36.13;21.88;;;;;;;;;;5049247;28;20375;-66
2021/10/30 03:30:29;;;;;;;36.15;20.15;;;;;;;;;;5049737;28;20037;-66
2021/10/30 03:32:55;;;;;;;32.53;19.08;;;;;;;;;;5031399;28;20033;-66
2021/10/30 03:35:21;;;;;;;31.73;18.52;;;;;;;;;;5046981;28;20025;-65
2021/10/30 03:37:47;;;;;;;32.60;20.55;;;;;;;;;;5047450;28;20147;-65
2021/10/30 03:40:14;;;;;;;41.85;20.25;;;;;;;;;;5048779;28;20033;-65
2021/10/30 03:42:40;;;;;;;35.85;19.95;;;;;;;;;;5049734;28;20028;-65
2021/10/30 03:45:07;;;;;;;31.70;19.65;;;;;;;;;;5045974;28;20021;-65
2021/10/30 03:47:33;;;;;;;36.35;19.58;;;;;;;;;;5042250;28;20071;-65
2021/10/30 03:49:59;;;;;;;37.20;21.50;;;;;;;;;;5048926;28;20402;-65
2021/10/30 03:52:25;;;;;;;37.38;23.08;;;;;;;;;;5041307;28;20024;-65
2021/10/30 03:54:53;;;;;;;34.13;21.10;;;;;;;;;;5049863;28;20041;-65
2021/10/30 03:57:19;;;;;;;37.03;20.65;;;;;;;;;;5031673;28;20029;-65
2021/10/30 03:59:45;;;;;;;32.85;21.73;;;;;;;;;;5048751;28;20087;-65
2021/10/30 04:02:11;;;;;;;35.05;21.65;;;;;;;;;;5045001;28;20021;-65
2021/10/30 04:04:38;;;;;;;39.83;22.70;;;;;;;;;;5049052;28;20052;-65
2021/10/30 04:07:04;;;;;;;38.90;21.48;;;;;;;;;;5027132;28;20120;-65
2021/10/30 04:09:30;;;;;;;39.63;23.08;;;;;;;;;;5044658;28;20037;-66
2021/10/30 04:11:56;;;;;;;33.72;22.27;;;;;;;;;;5048522;28;20524;-66
2021/10/30 04:14:22;;;;;;;35.60;21.63;;;;;;;;;;5045263;28;20052;-66
2021/10/30 04:16:49;;;;;;;41.72;22.33;;;;;;;;;;5049193;28;20025;-66
2021/10/30 04:19:15;;;;;;;36.63;22.60;;;;;;;;;;5030796;28;20025;-65
2021/10/30 04:21:41;;;;;;;36.90;21.55;;;;;;;;;;5049000;28;20037;-66
2021/10/30 04:24:08;;;;;;;39.17;23.17;;;;;;;;;;5032355;28;20406;-66
2021/10/30 04:26:34;;;;;;;35.65;21.35;;;;;;;;;;5047799;28;20028;-66
2021/10/30 04:29:00;;;;;;;51.17;20.67;;;;;;;;;;5050980;28;20478;-66
2021/10/30 04:31:28;;;;;;;33.38;21.05;;;;;;;;;;5052749;28;20074;-66
2021/10/30 04:33:59;;;;;;;29.80;20.40;;;;;;;;;;5052680;28;20112;-66
2021/10/30 04:36:27;;;;;;;33.15;21.58;;;;;;;;;;5052434;28;20031;-66
2021/10/30 04:38:53;;;;;;;34.85;21.83;;;;;;;;;;5025067;28;20029;-66
2021/10/30 04:41:19;;;;;;;34.42;22.13;;;;;;;;;;5049597;28;20028;-66
2021/10/30 04:43:46;;;;;;;34.38;22.48;;;;;;;;;;5053321;28;20025;-66
2021/10/30 04:46:15;;;;;;;44.90;23.42;;;;;;;;;;5050844;28;20025;-66
2021/10/30 04:48:41;;;;;;;36.85;22.40;;;;;;;;;;5050787;28;20044;-66
2021/10/30 04:51:08;;;;;;;36.40;23.92;;;;;;;;;;5051967;28;20476;-65
2021/10/30 04:53:34;;;;;;;36.78;24.40;;;;;;;;;;5045845;28;20025;-66
2021/10/30 04:56:01;;;;;;;42.33;23.52;;;;;;;;;;5031918;28;20124;-66
2021/10/30 04:58:28;;;;;;;38.83;22.00;;;;;;;;;;5046608;28;20032;-66
2021/10/30 05:00:54;;;;;;;34.03;23.45;;;;;;;;;;5051887;28;20087;-66
2021/10/30 05:03:21;;;;;;;33.90;20.63;;;;;;;;;;5052729;28;20029;-67
2021/10/30 05:05:47;;;;;;;35.75;23.27;;;;;;;;;;5051742;28;20132;-66
2021/10/30 05:08:13;;;;;;;38.60;21.42;;;;;;;;;;5050538;28;20421;-66
2021/10/30 05:10:40;;;;;;;35.30;21.77;;;;;;;;;;5052087;28;20048;-66
2021/10/30 05:13:06;;;;;;;37.83;23.55;;;;;;;;;;5049252;28;20516;-66
2021/10/30 05:15:32;;;;;;;36.08;22.42;;;;;;;;;;5045055;28;20027;-66
2021/10/30 05:17:59;;;;;;;37.38;23.25;;;;;;;;;;5032363;28;20056;-66
2021/10/30 05:20:26;;;;;;;35.95;21.73;;;;;;;;;;5052767;28;20033;-66
2021/10/30 05:22:52;;;;;;;38.53;24.58;;;;;;;;;;5052705;28;20017;-66
2021/10/30 05:25:18;;;;;;;38.38;23.45;;;;;;;;;;5034319;28;20049;-66
2021/10/30 05:27:44;;;;;;;32.95;22.48;;;;;;;;;;5051198;28;20017;-66
2021/10/30 05:30:10;;;;;;;35.30;23.48;;;;;;;;;;5047220;28;20063;-67
2021/10/30 05:32:36;;;;;;;38.63;22.48;;;;;;;;;;5052091;28;20021;-66
2021/10/30 05:35:02;;;;;;;43.60;23.83;;;;;;;;;;5044770;28;20037;-66
2021/10/30 05:37:28;;;;;;;43.42;24.13;;;;;;;;;;5050643;28;20027;-66
2021/10/30 05:39:54;;;;;;;41.92;22.80;;;;;;;;;;5050656;28;20029;-66
2021/10/30 05:42:20;;;;;;;45.83;24.63;;;;;;;;;;5049883;28;20025;-66
2021/10/30 05:44:47;;;;;;;36.60;23.70;;;;;;;;;;5052336;28;20116;-66
2021/10/30 05:47:14;;;;;;;45.20;26.52;;;;;;;;;;5050821;28;20074;-66
2021/10/30 05:49:41;;;;;;;51.00;25.98;;;;;;;;;;5050703;28;20025;-66
2021/10/30 05:52:08;;;;;;;46.47;26.08;;;;;;;;;;5052432;28;20021;-66
2021/10/30 05:54:35;;;;;;;42.63;26.17;;;;;;;;;;5052422;28;20032;-66
2021/10/30 05:57:01;;;;;;;44.35;26.30;;;;;;;;;;5050179;28;20106;-66
2021/10/30 05:59:27;;;;;;;45.30;24.15;;;;;;;;;;5033309;28;20052;-66
2021/10/30 06:01:54;;;;;;;45.25;24.10;;;;;;;;;;5049657;28;20033;-66
2021/10/30 06:04:20;;;;;;;40.63;24.20;;;;;;;;;;5051964;28;20021;-66
2021/10/30 06:06:46;;;;;;;38.55;24.08;;;;;;;;;;5041611;28;20053;-66
2021/10/30 06:09:12;;;;;;;34.72;21.10;;;;;;;;;;5049855;28;20032;-67
2021/10/30 06:11:38;;;;;;;35.88;23.10;;;;;;;;;;5030887;28;20797;-66
2021/10/30 06:14:06;;;;;;;35.63;20.58;;;;;;;;;;5050508;28;20063;-67
2021/10/30 06:16:32;;;;;;;32.70;21.58;;;;;;;;;;5051205;28;20028;-66
2021/10/30 06:18:58;;;;;;;34.38;20.73;;;;;;;;;;5045751;28;20025;-67
2021/10/30 06:21:26;;;;;;;39.53;22.20;;;;;;;;;;5051722;28;20108;-66
2021/10/30 06:23:53;;;;;;;37.25;23.60;;;;;;;;;;5046053;28;20021;-66
2021/10/30 06:26:20;;;;;;;36.28;21.70;;;;;;;;;;5044842;28;20026;-67
2021/10/30 06:28:46;;;;;;;34.22;23.48;;;;;;;;;;5034681;28;20444;-67
2021/10/30 06:31:12;;;;;;;40.05;21.83;;;;;;;;;;5043921;28;20113;-67
2021/10/30 06:33:39;;;;;;;39.45;24.67;;;;;;;;;;5042971;28;20132;-66
2021/10/30 06:36:05;;;;;;;35.70;22.30;;;;;;;;;;5044000;28;20036;-67
2021/10/30 06:38:31;;;;;;;35.08;20.80;;;;;;;;;;5048820;28;20043;-67
2021/10/30 06:40:59;;;;;;;30.92;21.85;;;;;;;;;;5023441;28;20037;-67
2021/10/30 06:43:25;;;;;;;33.65;20.30;;;;;;;;;;5050921;28;20021;-67
2021/10/30 06:45:51;;;;;;;29.98;19.48;;;;;;;;;;5046853;28;20028;-67
2021/10/30 06:48:17;;;;;;;35.10;20.70;;;;;;;;;;5039317;28;20017;-67
2021/10/30 06:50:43;;;;;;;41.45;19.88;;;;;;;;;;5029917;28;20032;-66
2021/10/30 06:53:09;;;;;;;30.55;18.08;;;;;;;;;;5049591;28;20025;-67
2021/10/30 06:55:36;;;;;;;32.58;19.15;;;;;;;;;;5033088;28;20032;-67
2021/10/30 06:58:02;;;;;;;24.90;18.33;;;;;;;;;;5047485;28;20230;-67
2021/10/30 07:00:28;;;;;;;31.65;19.02;;;;;;;;;;5050160;28;20397;-67
2021/10/30 07:02:54;;;;;;;26.88;17.02;;;;;;;;;;5031662;28;20048;-67
2021/10/30 07:05:21;;;;;;;29.33;16.73;;;;;;;;;;5031422;28;20051;-67
2021/10/30 07:07:47;;;;;;;27.45;18.10;;;;;;;;;;5043390;28;20053;-67
2021/10/30 07:10:13;;;;;;;27.13;17.80;;;;;;;;;;5029164;28;20078;-67
2021/10/30 07:12:39;;;;;;;29.73;18.42;;;;;;;;;;5049192;28;20046;-66
2021/10/30 07:15:06;;;;;;;28.13;18.13;;;;;;;;;;5046299;28;20112;-67
2021/10/30 07:17:32;;;;;;;29.33;19.27;;;;;;;;;;5045480;28;20029;-67
2021/10/30 07:19:58;;;;;;;25.70;16.70;;;;;;;;;;5044670;28;20056;-67
2021/10/30 07:22:24;;;;;;;26.38;17.17;;;;;;;;;;5134887;22;20061;-72
2021/10/30 07:24:51;;;;;;;30.45;18.00;;;;;;;;;;5029994;28;20117;-71
2021/10/30 07:27:17;;;;;;;28.20;17.27;;;;;;;;;;5029460;28;20499;-73
2021/10/30 07:29:48;;;;;;;27.58;15.98;;;;;;;;;;5025342;28;20029;-73
2021/10/30 07:32:14;;;;;;;28.48;16.75;;;;;;;;;;5018391;28;20029;-73
2021/10/30 07:34:40;;;;;;;28.60;17.30;;;;;;;;;;5021382;28;20022;-72
2021/10/30 07:37:06;;;;;;;24.27;16.30;;;;;;;;;;5025595;28;20025;-73
2021/10/30 07:39:34;;;;;;;25.75;16.98;;;;;;;;;;5024691;28;20492;-72
2021/10/30 07:42:01;;;;;;;25.95;16.33;;;;;;;;;;5015922;28;20373;-73
2021/10/30 07:44:27;;;;;;;25.75;15.63;;;;;;;;;;5028475;28;20128;-73
2021/10/30 07:46:54;;;;;;;28.35;16.42;;;;;;;;;;5011194;28;20064;-72
2021/10/30 07:49:21;;;;;;;22.45;15.57;;;;;;;;;;5025699;28;20113;-73
2021/10/30 07:51:47;;;;;;;24.63;15.27;;;;;;;;;;5009364;28;20523;-73
2021/10/30 07:54:13;;;;;;;29.88;17.75;;;;;;;;;;5028256;28;20029;-73
2021/10/30 07:56:39;;;;;;;25.00;15.82;;;;;;;;;;5027836;28;20088;-73
2021/10/30 07:59:05;;;;;;;27.63;16.27;;;;;;;;;;5025479;28;20369;-73
2021/10/30 08:01:31;;;;;;;23.05;16.42;;;;;;;;;;5008445;28;20037;-72
2021/10/30 08:03:57;;;;;;;25.17;15.25;;;;;;;;;;5012680;28;20508;-73
2021/10/30 08:06:23;;;;;;;25.98;14.68;;;;;;;;;;5031477;28;20460;-73
2021/10/30 08:08:49;;;;;;;21.73;13.98;;;;;;;;;;5030631;28;20025;-73
2021/10/30 08:11:15;;;;;;;21.10;15.02;;;;;;;;;;5032660;28;20192;-74
2021/10/30 08:13:41;;;;;;;23.10;14.57;;;;;;;;;;5031587;28;20029;-72
2021/10/30 08:16:07;;;;;;;20.40;13.80;;;;;;;;;;5010908;28;20021;-73
2021/10/30 08:18:33;;;;;;;20.90;13.52;;;;;;;;;;5022815;28;20029;-73
2021/10/30 08:20:59;;;;;;;20.27;14.13;;;;;;;;;;5032581;28;20029;-73
2021/10/30 08:23:25;;;;;;;22.13;12.98;;;;;;;;;;5014468;28;20120;-74
2021/10/30 08:25:51;;;;;;;16.20;11.02;;;;;;;;;;5032736;28;20083;-72
2021/10/30 08:28:18;;;;;;;17.42;12.23;;;;;;;;;;5029326;28;20148;-71
2021/10/30 08:30:44;;;;;;;17.00;12.07;;;;;;;;;;5031776;28;20081;-73
2021/10/30 08:33:11;;;;;;;22.42;13.93;;;;;;;;;;5009323;28;20041;-73
2021/10/30 08:35:37;;;;;;;21.13;12.40;;;;;;;;;;5028159;28;20741;-72
2021/10/30 08:38:08;;;;;;;19.55;12.93;;;;;;;;;;5026297;28;20361;-71
2021/10/30 08:40:35;;;;;;;17.60;11.82;;;;;;;;;;5029738;28;20046;-72
2021/10/30 08:43:01;;;;;;;17.60;12.10;;;;;;;;;;5029695;28;20030;-72
2021/10/30 08:45:31;;;;;;;21.42;12.43;;;;;;;;;;5030215;28;20017;-74
2021/10/30 08:47:57;;;;;;;19.08;12.82;;;;;;;;;;5028604;28;20688;-72
2021/10/30 08:50:24;;;;;;;16.67;10.30;;;;;;;;;;5029638;28;20060;-72
2021/10/30 08:52:50;;;;;;;14.30;10.48;;;;;;;;;;5028778;28;20045;-72
2021/10/30 08:55:16;;;;;;;14.10;10.05;;;;;;;;;;5031913;28;20029;-73
2021/10/30 08:57:42;;;;;;;16.30;9.85;;;;;;;;;;5030513;28;20504;-72
2021/10/30 09:00:16;;;;;;;15.40;10.98;;;;;;;;;;5012087;28;20512;-72
2021/10/30 09:02:42;;;;;;;17.80;10.30;;;;;;;;;;5032154;28;20116;-74
2021/10/30 09:05:11;;;;;;;16.88;10.43;;;;;;;;;;5015269;28;20044;-72
2021/10/30 09:07:37;;;;;;;16.45;11.48;;;;;;;;;;5031070;28;20056;-73
2021/10/30 09:10:07;;;;;;;16.67;10.80;;;;;;;;;;5029239;28;20014;-73
2021/10/30 09:12:33;;;;;;;16.27;8.75;;;;;;;;;;5029187;28;20025;-72
2021/10/30 09:14:59;;;;;;;14.52;10.30;;;;;;;;;;5030569;28;20373;-71
2021/10/30 09:17:27;;;;;;;14.13;9.48;;;;;;;;;;5030602;28;20170;-73
2021/10/30 09:19:54;;;;;;;14.85;10.75;;;;;;;;;;5002846;28;20412;-72
2021/10/30 09:22:22;;;;;;;16.08;11.85;;;;;;;;;;5015144;28;20890;-72
2021/10/30 09:25:02;;;;;;;19.20;11.25;;;;;;;;;;5029361;28;20021;-72
2021/10/30 09:27:51;;;;;;;15.88;10.15;;;;;;;;;;5030962;28;20026;-74
2021/10/30 09:30:18;;;;;;;15.02;10.20;;;;;;;;;;5028423;28;20388;-72
2021/10/30 09:32:50;;;;;;;18.25;11.80;;;;;;;;;;5031256;28;20100;-73
2021/10/30 09:35:21;;;;;;;17.63;10.50;;;;;;;;;;5031501;28;20029;-73
2021/10/30 09:37:48;;;;;;;17.33;11.98;;;;;;;;;;5011524;28;20463;-71
2021/10/30 09:40:21;;;;;;;16.75;10.60;;;;;;;;;;5028809;28;20010;-72
2021/10/30 09:42:49;;;;;;;20.25;11.27;;;;;;;;;;5031529;28;20025;-73
2021/10/30 09:45:15;;;;;;;16.45;12.40;;;;;;;;;;5030439;28;20030;-73
2021/10/30 09:48:02;;;;;;;17.85;11.95;;;;;;;;;;5029203;28;20098;-73
2021/10/30 09:50:29;;;;;;;17.60;11.85;;;;;;;;;;5026592;28;20040;-73
2021/10/30 09:52:56;;;;;;;20.58;12.93;;;;;;;;;;5010580;28;20060;-73
2021/10/30 09:55:22;;;;;;;18.80;12.43;;;;;;;;;;5031172;28;20025;-74
2021/10/30 09:57:57;;;;;;;20.67;11.77;;;;;;;;;;5028709;28;20033;-73
2021/10/30 10:00:24;;;;;;;19.20;11.93;;;;;;;;;;5009247;28;20033;-73
2021/10/30 10:02:52;;;;;;;18.73;12.55;;;;;;;;;;5010080;28;20025;-73
2021/10/30 10:05:19;;;;;;;18.85;12.75;;;;;;;;;;5026581;28;20022;-73
2021/10/30 10:07:48;;;;;;;15.00;11.05;;;;;;;;;;5007788;28;20033;-73
2021/10/30 10:10:14;;;;;;;18.92;13.48;;;;;;;;;;5022740;28;20026;-72
2021/10/30 10:12:40;;;;;;;17.20;11.82;;;;;;;;;;5024813;28;20391;-72
2021/10/30 10:15:06;;;;;;;18.48;12.15;;;;;;;;;;5028998;28;20022;-72
2021/10/30 10:17:33;;;;;;;16.10;11.98;;;;;;;;;;5010304;28;20025;-73
2021/10/30 10:19:59;;;;;;;19.60;13.25;;;;;;;;;;5023543;28;20438;-72
2021/10/30 10:22:26;;;;;;;21.50;13.65;;;;;;;;;;5022966;28;20049;-73
2021/10/30 10:24:52;;;;;;;19.25;12.23;;;;;;;;;;5026354;28;20018;-73
2021/10/30 10:27:18;;;;;;;16.17;12.15;;;;;;;;;;5027727;28;20028;-72
2021/10/30 10:29:45;;;;;;;19.40;11.77;;;;;;;;;;5026432;28;20053;-73
2021/10/30 10:32:22;;;;;;;22.38;12.57;;;;;;;;;;5024547;28;20113;-72
2021/10/30 10:34:49;;;;;;;20.88;12.82;;;;;;;;;;5027669;28;20036;-72
2021/10/30 10:37:17;;;;;;;17.80;11.48;;;;;;;;;;5028050;28;20028;-72
2021/10/30 10:39:44;;;;;;;16.83;10.80;;;;;;;;;;5017735;28;20496;-72
2021/10/30 10:42:11;;;;;;;20.85;12.15;;;;;;;;;;5028418;28;20033;-72
2021/10/30 10:44:43;;;;;;;16.40;11.43;;;;;;;;;;5011478;28;20405;-72
2021/10/30 10:47:11;;;;;;;20.30;11.07;;;;;;;;;;5029872;28;20029;-71
2021/10/30 10:49:47;;;;;;;17.98;11.20;;;;;;;;;;5010322;28;20022;-72
2021/10/30 10:52:24;;;;;;;14.73;10.73;;;;;;;;;;5025793;28;20061;-71
2021/10/30 10:54:53;;;;;;;15.93;11.15;;;;;;;;;;5011053;28;20032;-71
2021/10/30 10:57:26;;;;;;;17.33;11.32;;;;;;;;;;5010037;28;20029;-73
2021/10/30 11:00:05;;;;;;;16.63;12.18;;;;;;;;;;5009450;28;20033;-71
2021/10/30 11:02:37;;;;;;;17.77;11.85;;;;;;;;;;5025099;28;20032;-71
2021/10/30 11:05:03;;;;;;;;;;;;;;;;;;5021712;28;20018;-71
2021/10/30 11:07:29;;;;;;;17.55;12.18;;;;;;;;;;5029899;28;20354;-71
2021/10/30 11:10:00;;;;;;;20.63;13.65;;;;;;;;;;5024215;28;20022;-70
2021/10/30 11:12:28;;;;;;;17.23;10.97;;;;;;;;;;5030052;28;20056;-71
2021/10/30 11:15:03;;;;;;;17.20;12.27;;;;;;;;;;5027160;28;20032;-72
2021/10/30 11:17:34;;;;;;;16.02;12.40;;;;;;;;;;5027309;28;20018;-70
2021/10/30 11:20:09;;;;;;;17.73;12.75;;;;;;;;;;5025864;28;20025;-70
2021/10/30 11:22:35;;;;;;;16.58;11.45;;;;;;;;;;5025579;28;20049;-70
2021/10/30 11:25:01;;;;;;;21.17;12.43;;;;;;;;;;5028397;28;20021;-71
2021/10/30 11:27:28;;;;;;;16.80;12.10;;;;;;;;;;5033463;28;20029;-72
2021/10/30 11:29:54;;;;;;;20.52;12.90;;;;;;;;;;5025974;28;20095;-70
2021/10/30 11:32:21;;;;;;;19.42;12.60;;;;;;;;;;5030678;28;20052;-70
2021/10/30 11:34:54;;;;;;;18.13;12.65;;;;;;;;;;5021059;28;20508;-71
2021/10/30 11:37:20;;;;;;;18.67;12.98;;;;;;;;;;5026350;28;20045;-71
2021/10/30 11:39:47;;;;;;;23.10;14.45;;;;;;;;;;5026145;28;20033;-70
2021/10/30 11:42:13;;;;;;;19.73;13.52;;;;;;;;;;5028065;28;20118;-70
2021/10/30 11:44:53;;;;;;;20.52;13.82;;;;;;;;;;5028798;28;20534;-71
2021/10/30 11:47:29;;;;;;;22.60;16.95;;;;;;;;;;5029591;28;20033;-71
2021/10/30 11:49:56;;;;;;;20.00;14.98;;;;;;;;;;5008882;28;20036;-70
2021/10/30 11:52:24;;;;;;;19.85;15.35;;;;;;;;;;5029548;28;20032;-70
2021/10/30 11:54:55;;;;;;;19.55;14.65;;;;;;;;;;5008502;28;20033;-71
2021/10/30 11:57:21;;;;;;;16.92;12.20;;;;;;;;;;5022659;28;20044;-71
2021/10/30 11:59:56;;;;;;;20.92;14.18;;;;;;;;;;5025030;28;20443;-70
2021/10/30 12:02:22;;;;;;;21.10;13.25;;;;;;;;;;5016052;28;20029;-70
2021/10/30 12:04:48;;;;;;;19.83;13.82;;;;;;;;;;5011666;28;20029;-71
2021/10/30 12:07:18;;;;;;;15.93;12.20;;;;;;;;;;5028893;28;20420;-71
2021/10/30 12:09:45;;;;;;;16.92;12.90;;;;;;;;;;5027107;28;20407;-70
2021/10/30 12:12:17;;;;;;;15.80;12.05;;;;;;;;;;5026838;28;20029;-70
2021/10/30 12:14:45;;;;;;;19.63;15.10;;;;;;;;;;5027766;28;20518;-70
2021/10/30 12:17:13;;;;;;;20.48;14.40;;;;;;;;;;5022265;28;20441;-70
2021/10/30 12:19:40;;;;;;;14.85;11.32;;;;;;;;;;5025319;28;20053;-71
2021/10/30 12:22:19;;;;;;;14.40;11.70;;;;;;;;;;5025996;28;20129;-70
2021/10/30 12:24:45;;;;;;;16.23;12.85;;;;;;;;;;5026237;28;20083;-71
2021/10/30 12:27:12;;;;;;;15.52;12.45;;;;;;;;;;5033083;28;20388;-70
2021/10/30 12:29:42;;;;;;;13.68;11.93;;;;;;;;;;5025414;28;20311;-71
2021/10/30 12:32:10;;;;;;;16.02;12.80;;;;;;;;;;5028247;28;20071;-72
2021/10/30 12:34:37;;;;;;;14.23;11.88;;;;;;;;;;5028202;28;20029;-72
2021/10/30 12:37:08;;;;;;;17.77;12.30;;;;;;;;;;5020192;28;20025;-72
2021/10/30 12:39:34;;;;;;;15.60;11.48;;;;;;;;;;5022472;28;20030;-72
2021/10/30 12:42:03;;;;;;;17.38;14.18;;;;;;;;;;5025152;28;20044;-72
2021/10/30 12:44:31;;;;;;;16.50;13.88;;;;;;;;;;5028118;28;20415;-73
2021/10/30 12:46:59;;;;;;;16.73;14.25;;;;;;;;;;5024210;28;20021;-71
2021/10/30 12:49:27;;;;;;;16.00;12.63;;;;;;;;;;5025750;28;20013;-73
2021/10/30 12:52:00;;;;;;;17.02;13.95;;;;;;;;;;5026818;28;20025;-73
2021/10/30 12:54:26;;;;;;;16.70;12.60;;;;;;;;;;5027118;28;20022;-72
2021/10/30 12:56:53;;;;;;;14.98;12.77;;;;;;;;;;5032199;28;20034;-73
2021/10/30 12:59:26;;;;;;;16.55;13.55;;;;;;;;;;5026753;28;20032;-73
2021/10/30 13:01:53;;;;;;;18.70;13.05;;;;;;;;;;5025927;28;20125;-71
2021/10/30 13:04:26;;;;;;;15.88;12.60;;;;;;;;;;5026811;28;20018;-73
2021/10/30 13:06:58;;;;;;;16.67;11.65;;;;;;;;;;5029317;28;20029;-72
2021/10/30 13:09:26;;;;;;;17.30;11.80;;;;;;;;;;5009852;28;20125;-74
2021/10/30 13:11:52;;;;;;;15.10;12.43;;;;;;;;;;5028768;28;20045;-72
2021/10/30 13:14:18;;;;;;;15.90;12.38;;;;;;;;;;5028215;28;20064;-71
2021/10/30 13:16:44;;;;;;;15.90;12.55;;;;;;;;;;5030771;28;20223;-71
2021/10/30 13:19:10;;;;;;;14.98;11.73;;;;;;;;;;5024450;28;20500;-73
2021/10/30 13:21:37;;;;;;;20.15;12.40;;;;;;;;;;5012421;28;20096;-73
2021/10/30 13:24:04;;;;;;;13.88;11.52;;;;;;;;;;5031584;28;20028;-72
2021/10/30 13:26:30;;;;;;;20.40;13.85;;;;;;;;;;5030520;28;20029;-73
2021/10/30 13:28:56;;;;;;;13.93;11.32;;;;;;;;;;5023309;28;20029;-71
2021/10/30 13:31:22;;;;;;;15.15;11.68;;;;;;;;;;5005593;28;20393;-71
2021/10/30 13:33:49;;;;;;;15.10;11.02;;;;;;;;;;5017398;28;20037;-73
2021/10/30 13:36:18;;;;;;;14.52;10.73;;;;;;;;;;5017306;28;20029;-73
2021/10/30 13:38:44;;;;;;;15.35;10.00;;;;;;;;;;5019014;28;20061;-71
2021/10/30 13:41:12;;;;;;;12.73;10.18;;;;;;;;;;5012725;28;20029;-72
2021/10/30 13:43:38;;;;;;;14.18;11.27;;;;;;;;;;5012992;28;20053;-72
2021/10/30 13:46:04;;;;;;;14.25;11.60;;;;;;;;;;5031559;28;20044;-74
2021/10/30 13:48:32;;;;;;;14.45;10.73;;;;;;;;;;5028383;28;20022;-72
2021/10/30 13:50:58;;;;;;;14.52;11.50;;;;;;;;;;5030430;28;20040;-71
2021/10/30 13:53:24;;;;;;;14.70;10.10;;;;;;;;;;5013804;28;20113;-72
2021/10/30 13:55:50;;;;;;;12.52;9.75;;;;;;;;;;5031360;28;20033;-72
2021/10/30 13:58:16;;;;;;;12.77;10.05;;;;;;;;;;5024895;28;20192;-70
2021/10/30 14:00:42;;;;;;;15.82;11.10;;;;;;;;;;5023069;28;20040;-69
2021/10/30 14:03:08;;;;;;;12.45;4.60;;;;;;;;;;5014130;28;20735;-72
2021/10/30 14:05:35;;;;;;;10.38;3.72;;;;;;;;;;5018532;28;20052;-72
2021/10/30 14:08:01;;;;;;;8.35;3.00;;;;;;;;;;5007842;28;20033;-72
2021/10/30 14:10:28;;;;;;;8.70;2.67;;;;;;;;;;5010675;28;20075;-73
2021/10/30 14:12:54;;;;;;;8.98;3.30;;;;;;;;;;5009525;28;20029;-72
2021/10/30 14:17:48;;;;;;;13.02;3.05;;;;;;;;;;5001264;28;20053;-67
2021/10/30 14:20:14;;;;;;;9.50;2.90;;;;;;;;;;5014087;28;20025;-67